createdAt,value
2017-07-19T00:04:45.686Z,91.98
2017-07-19T00:24:46.042Z,94.98
2017-07-19T00:44:46.474Z,94.53
2017-07-19T01:04:46.964Z,93.88
2017-07-19T01:24:47.458Z,89.42
2017-07-19T01:44:47.728Z,58.73
2017-07-19T02:04:48.159Z,12.46
2017-07-19T02:24:48.532Z,53.78
2017-07-19T02:44:49.081Z,99.28
2017-07-19T03:04:06.165Z,61.73
2017-07-19T03:24:05.575Z,100.00
2017-07-19T03:44:06.074Z,49.42
2017-07-19T04:04:06.617Z,5.92
2017-07-19T04:24:07.151Z,1.90
2017-07-19T04:44:07.577Z,0.10
2017-07-19T05:04:08.164Z,0.11
2017-07-19T05:24:08.689Z,2.77
2017-07-19T05:44:09.114Z,16.62
2017-07-19T06:04:09.580Z,0.02
2017-07-19T06:24:10.057Z,0.03
2017-07-19T06:44:10.447Z,0.01
2017-07-19T07:04:10.901Z,0.01
2017-07-19T07:24:11.445Z,3.54
2017-07-19T07:44:12.013Z,26.23
2017-07-19T08:04:12.546Z,83.50
2017-07-19T08:24:13.090Z,71.02
2017-07-19T08:44:13.613Z,94.80
2017-07-19T09:04:14.149Z,92.18
2017-07-19T09:24:14.693Z,88.01
2017-07-19T09:44:15.234Z,77.29
2017-07-19T10:04:15.772Z,59.71
2017-07-19T10:24:16.315Z,24.89
2017-07-19T10:44:16.866Z,19.15
2017-07-19T11:04:17.416Z,13.90
2017-07-19T11:24:17.964Z,10.79
2017-07-19T11:44:18.511Z,9.20
2017-07-19T12:04:19.067Z,84.99
2017-07-19T12:24:19.576Z,29.82
2017-07-19T12:54:20.417Z,35.81
2017-07-19T13:14:20.966Z,87.53
2017-07-19T13:34:21.519Z,27.25
2017-07-19T13:54:22.066Z,14.52
2017-07-19T14:14:22.619Z,99.80
2017-07-19T14:34:23.160Z,97.34
2017-07-19T14:54:23.718Z,99.94
2017-07-19T15:14:24.246Z,100.00
2017-07-19T15:34:24.783Z,99.77
2017-07-19T15:54:25.337Z,52.44
2017-07-19T16:14:25.829Z,40.70
2017-07-19T16:34:26.368Z,38.44
2017-07-19T16:54:26.912Z,100.00
2017-07-19T17:14:27.482Z,100.00
2017-07-19T17:34:27.968Z,100.00
2017-07-19T17:54:28.524Z,100.00
2017-07-19T18:14:28.957Z,100.00
2017-07-19T18:34:29.445Z,100.00
2017-07-19T18:54:29.961Z,100.00
2017-07-19T19:14:30.410Z,100.00
2017-07-19T19:34:30.969Z,100.00
2017-07-19T19:54:31.624Z,97.91
2017-07-19T20:14:33.104Z,77.93
2017-07-19T20:40:17.188Z,99.87
2017-07-19T21:00:17.716Z,63.28
2017-07-19T21:20:18.124Z,8.09
2017-07-19T21:40:18.653Z,47.29
2017-07-19T22:00:19.090Z,60.63
2017-07-19T22:20:19.656Z,70.12
2017-07-19T22:40:20.015Z,69.09
2017-07-19T23:00:20.547Z,79.66
2017-07-19T23:20:21.007Z,82.01
2017-07-19T23:40:21.522Z,55.64
